createdAt,value
2022-12-28T00:00:18.699Z,25.50
2022-12-28T00:01:18.669Z,25.51
2022-12-28T00:02:18.778Z,25.50
2022-12-28T00:03:18.698Z,25.50
2022-12-28T00:54:34.551Z,25.51
2022-12-28T00:55:35.530Z,25.51
2022-12-28T00:56:35.524Z,25.51
2022-12-28T00:57:35.511Z,25.51
2022-12-28T00:58:35.489Z,25.50
2022-12-28T00:59:35.473Z,25.50
2022-12-28T01:00:35.473Z,25.51
2022-12-28T01:01:35.592Z,25.51
2022-12-28T01:02:35.498Z,25.53
2022-12-28T01:03:35.438Z,25.51
2022-12-28T01:04:35.436Z,25.53
2022-12-28T01:05:35.423Z,25.51
2022-12-28T01:06:35.415Z,25.54
2022-12-28T01:07:35.395Z,25.51
2022-12-28T01:08:35.389Z,25.51
2022-12-28T01:09:35.387Z,25.53
2022-12-28T01:10:35.400Z,25.53
2022-12-28T01:11:35.371Z,25.51
2022-12-28T01:13:35.348Z,25.53
2022-12-28T01:14:35.341Z,25.51
2022-12-28T01:15:35.330Z,25.51
2022-12-28T01:16:35.359Z,25.53
2022-12-28T01:17:35.311Z,25.49
2022-12-28T01:18:35.304Z,25.51
2022-12-28T01:19:35.329Z,25.53
2022-12-28T01:20:35.283Z,25.51
2022-12-28T01:21:35.271Z,25.49
2022-12-28T01:22:35.271Z,25.50
2022-12-28T01:23:35.261Z,25.50
2022-12-28T01:24:35.248Z,25.50
2022-12-28T01:25:35.253Z,25.49
2022-12-28T01:26:35.265Z,25.49
2022-12-28T01:27:35.229Z,25.49
2022-12-28T01:29:35.205Z,25.50
2022-12-28T01:30:35.235Z,25.49
2022-12-28T01:31:35.344Z,25.49
2022-12-28T01:32:35.182Z,25.47
2022-12-28T01:34:35.171Z,25.47
2022-12-28T01:35:35.163Z,25.49
2022-12-28T01:36:35.178Z,25.49
2022-12-28T01:37:35.143Z,25.50
2022-12-28T01:38:35.131Z,25.47
2022-12-28T01:39:35.121Z,25.47
2022-12-28T01:40:35.114Z,25.49
2022-12-28T01:41:35.109Z,25.49
2022-12-28T01:42:35.126Z,25.50
2022-12-28T01:43:35.092Z,25.49
2022-12-28T01:44:35.078Z,25.50
2022-12-28T01:45:35.112Z,25.47
2022-12-28T01:46:35.058Z,25.49
2022-12-28T01:47:35.049Z,25.49
2022-12-28T01:48:35.043Z,25.47
2022-12-28T01:49:35.039Z,25.47
2022-12-28T01:50:35.024Z,25.47
2022-12-28T01:51:35.023Z,25.49
2022-12-28T01:52:35.014Z,25.47
2022-12-28T01:53:34.996Z,25.47
2022-12-28T01:54:34.990Z,25.49
2022-12-28T01:55:34.993Z,25.47
2022-12-28T01:56:34.975Z,25.49
2022-12-28T01:57:34.970Z,25.49
2022-12-28T01:58:34.987Z,25.50
2022-12-28T01:59:34.946Z,25.50
2022-12-28T02:00:34.941Z,25.50
2022-12-28T02:01:35.034Z,25.49
2022-12-28T02:26:34.719Z,25.50
2022-12-28T02:48:34.507Z,25.49
2022-12-28T02:49:34.502Z,25.50
2022-12-28T02:50:34.495Z,25.47
2022-12-28T02:51:34.486Z,25.49
2022-12-28T02:52:34.476Z,25.49
2022-12-28T02:53:34.467Z,25.49
2022-12-28T03:12:34.294Z,25.49
2022-12-28T03:13:34.289Z,25.49
2022-12-28T03:14:34.287Z,25.47
2022-12-28T03:15:34.342Z,25.49
2022-12-28T03:16:34.261Z,25.49
2022-12-28T03:17:34.255Z,25.50
2022-12-28T03:18:34.358Z,25.49
2022-12-28T03:19:34.238Z,25.47
2022-12-28T03:20:34.230Z,25.47
2022-12-28T03:21:34.220Z,25.47
2022-12-28T03:22:34.213Z,25.47
2022-12-28T03:23:34.205Z,25.49
2022-12-28T03:24:34.203Z,25.49
2022-12-28T03:25:34.179Z,25.47
2022-12-28T03:26:34.171Z,25.49
2022-12-28T03:27:34.161Z,25.47
2022-12-28T03:28:34.165Z,25.47
2022-12-28T03:29:34.146Z,25.47
2022-12-28T03:30:34.135Z,25.49
2022-12-28T03:31:34.131Z,25.47
2022-12-28T03:32:34.119Z,25.46
2022-12-28T03:33:34.106Z,25.47
2022-12-28T03:34:34.128Z,25.49
2022-12-28T03:35:34.102Z,25.47
2022-12-28T03:36:34.080Z,25.47
2022-12-28T03:37:34.078Z,25.47
2022-12-28T03:38:34.071Z,25.49
2022-12-28T03:39:34.060Z,25.49
2022-12-28T03:40:34.061Z,25.46
2022-12-28T03:41:34.036Z,25.49
2022-12-28T03:42:34.033Z,25.49
2022-12-28T03:43:34.024Z,25.51
2022-12-28T03:44:34.017Z,25.50
2022-12-28T03:45:46.212Z,25.46
2022-12-28T03:46:34.048Z,25.50
2022-12-28T03:47:33.994Z,25.49
2022-12-28T03:48:33.975Z,25.49
2022-12-28T03:49:33.964Z,25.47
2022-12-28T03:50:34.024Z,25.49
2022-12-28T03:51:33.951Z,25.49
2022-12-28T03:52:33.960Z,25.50
2022-12-28T03:53:33.941Z,25.49
2022-12-28T03:54:33.929Z,25.47
2022-12-28T14:52:28.047Z,25.56
2022-12-28T18:54:25.867Z,25.43
2022-12-28T18:55:25.856Z,25.43
2022-12-28T18:56:25.848Z,25.44
2022-12-28T18:57:25.839Z,25.42
2022-12-28T18:58:25.829Z,25.44
2022-12-28T18:59:25.823Z,25.42
2022-12-28T19:00:25.808Z,25.46
2022-12-28T19:02:04.737Z,25.44
2022-12-28T19:02:26.034Z,25.44
2022-12-28T19:03:26.005Z,25.44
2022-12-28T19:04:25.869Z,25.44
2022-12-28T19:05:25.765Z,25.44
2022-12-28T19:06:25.762Z,25.47
2022-12-28T19:07:25.749Z,25.46
2022-12-28T19:08:25.739Z,25.44
2022-12-28T19:09:25.733Z,25.42
2022-12-28T19:10:25.728Z,25.46
2022-12-28T19:11:25.722Z,25.46
2022-12-28T19:12:25.713Z,25.42
2022-12-28T19:13:25.701Z,25.44
2022-12-28T19:14:25.683Z,25.40
2022-12-28T19:15:25.677Z,25.42
2022-12-28T19:16:30.972Z,25.44
2022-12-28T19:17:25.665Z,25.46
2022-12-28T19:18:25.688Z,25.42
2022-12-28T19:19:25.643Z,25.44
2022-12-28T19:20:25.628Z,25.43
2022-12-28T19:21:25.629Z,25.43
2022-12-28T19:22:25.614Z,25.40
2022-12-28T19:23:25.611Z,25.44
2022-12-28T19:24:25.598Z,25.43
2022-12-28T19:25:25.592Z,25.43
2022-12-28T19:26:25.594Z,25.43
2022-12-28T19:27:25.571Z,25.44
2022-12-28T19:28:25.567Z,25.44
2022-12-28T19:29:25.566Z,25.43
2022-12-28T19:30:25.543Z,25.44
2022-12-28T19:31:25.602Z,25.46
2022-12-28T19:32:25.543Z,25.44
2022-12-28T19:33:25.537Z,25.46
2022-12-28T19:34:25.541Z,25.44
2022-12-28T19:35:25.995Z,25.44
2022-12-28T19:36:25.507Z,25.43
2022-12-28T19:37:25.487Z,25.43
2022-12-28T19:38:25.476Z,25.43
2022-12-28T19:39:25.469Z,25.43
2022-12-28T19:40:25.463Z,25.46
2022-12-28T19:41:25.462Z,25.46
2022-12-28T19:42:25.434Z,25.43
2022-12-28T19:43:25.450Z,25.43
2022-12-28T19:44:25.431Z,25.43
2022-12-28T19:45:25.419Z,25.44
2022-12-28T19:46:25.439Z,25.44
2022-12-28T19:47:25.407Z,25.42
2022-12-28T19:48:25.400Z,25.43
2022-12-28T19:49:25.387Z,25.43
2022-12-28T19:50:25.402Z,25.42
